createdAt,value
2018-12-18T00:01:34.383Z,101742.42
2018-12-18T00:04:02.723Z,101743.31
2018-12-18T00:06:31.087Z,101751.20
2018-12-18T00:08:59.441Z,101748.31
2018-12-18T00:11:27.818Z,101753.76
2018-12-18T00:13:56.155Z,101758.00
2018-12-18T00:16:24.603Z,101755.58
2018-12-18T00:18:52.952Z,101750.91
2018-12-18T00:21:21.307Z,101749.90
2018-12-18T00:23:49.660Z,101743.23
2018-12-18T00:26:18.055Z,101744.37
2018-12-18T00:28:46.395Z,101730.05
2018-12-18T00:31:14.852Z,101730.48
2018-12-18T00:33:46.035Z,101733.83
2018-12-18T00:36:13.574Z,101735.30
2018-12-18T00:38:41.941Z,101729.73
2018-12-18T00:41:10.283Z,101736.28
2018-12-18T00:43:38.639Z,101734.37
2018-12-18T00:46:07.059Z,101727.35
2018-12-18T00:48:35.431Z,101731.71
2018-12-18T00:51:03.779Z,101729.31
2018-12-18T00:53:32.152Z,101731.58
2018-12-18T00:56:00.512Z,101738.13
2018-12-18T00:58:28.887Z,101733.51
2018-12-18T01:00:57.236Z,101734.89
2018-12-18T01:03:25.615Z,101731.41
2018-12-18T01:05:54.024Z,101732.30
2018-12-18T01:08:22.386Z,101738.45
2018-12-18T01:10:50.730Z,101734.67
2018-12-18T01:13:19.130Z,101735.25
2018-12-18T01:15:47.517Z,101738.41
2018-12-18T01:18:15.891Z,101747.53
2018-12-18T01:20:44.231Z,101741.71
2018-12-18T01:23:12.606Z,101750.53
2018-12-18T01:25:40.973Z,101756.36
2018-12-18T01:28:09.341Z,101753.87
2018-12-18T01:30:37.746Z,101757.34
2018-12-18T01:33:06.167Z,101760.41
2018-12-18T01:35:34.535Z,101763.39
2018-12-18T01:38:03.062Z,101769.77
2018-12-18T01:40:31.484Z,101770.84
2018-12-18T01:42:59.990Z,101761.39
2018-12-18T01:45:28.392Z,101763.14
2018-12-18T01:47:56.899Z,101762.02
2018-12-18T01:50:25.306Z,101766.39
2018-12-18T01:52:53.676Z,101772.27
2018-12-18T01:55:22.046Z,101773.42
2018-12-18T01:57:50.450Z,101772.03
2018-12-18T02:00:18.864Z,101766.47
2018-12-18T02:02:47.230Z,101765.72
2018-12-18T02:05:15.595Z,101772.18
2018-12-18T02:07:43.947Z,101774.36
2018-12-18T02:10:12.326Z,101761.13
2018-12-18T02:12:40.677Z,101771.33
2018-12-18T02:15:09.054Z,101774.49
2018-12-18T02:17:37.417Z,101769.81
2018-12-18T02:20:07.428Z,101774.72
2018-12-18T02:22:35.777Z,101776.59
2018-12-18T02:25:05.795Z,101766.43
2018-12-18T02:27:34.141Z,101766.52
2018-12-18T02:30:02.781Z,101766.52
2018-12-18T02:32:31.135Z,101768.21
2018-12-18T02:34:59.439Z,101764.73
2018-12-18T02:37:27.741Z,101764.73
2018-12-18T02:39:56.071Z,101766.11
2018-12-18T02:42:24.442Z,101752.30
2018-12-18T02:44:52.793Z,101755.29
2018-12-18T02:47:21.101Z,101750.44
2018-12-18T02:49:49.418Z,101746.96
2018-12-18T02:52:17.731Z,101752.53
2018-12-18T02:54:46.045Z,101755.03
2018-12-18T02:57:14.343Z,101769.10
2018-12-18T02:59:42.660Z,101759.97
2018-12-18T03:02:11.010Z,101755.29
2018-12-18T03:04:39.470Z,101751.91
2018-12-18T03:07:07.930Z,101755.29
2018-12-18T03:09:36.235Z,101766.57
2018-12-18T03:12:04.738Z,101774.50
2018-12-18T03:14:33.062Z,101775.47
2018-12-18T03:17:01.368Z,101779.44
2018-12-18T03:19:29.690Z,101776.85
2018-12-18T03:21:57.988Z,101777.92
2018-12-18T03:24:26.307Z,101776.63
2018-12-18T03:26:54.690Z,101774.62
2018-12-18T03:29:23.360Z,101770.16
2018-12-18T03:34:39.615Z,101770.80
2018-12-18T03:37:08.058Z,101768.13
2018-12-18T03:39:36.383Z,101769.02
2018-12-18T03:42:04.812Z,101768.44
2018-12-18T03:44:33.131Z,101773.92
2018-12-18T03:47:01.441Z,101777.66
2018-12-18T03:49:29.773Z,101776.27
2018-12-18T03:51:58.092Z,101772.40
2018-12-18T03:54:26.399Z,101773.29
2018-12-18T03:56:54.712Z,101770.30
2018-12-18T03:59:23.018Z,101770.62
2018-12-18T04:01:51.332Z,101776.19
2018-12-18T04:04:19.694Z,101778.68
2018-12-18T04:06:48.046Z,101778.28
2018-12-18T04:09:16.343Z,101776.67
2018-12-18T04:11:50.133Z,101777.97
2018-12-18T04:14:18.436Z,101780.06
2018-12-18T04:16:46.862Z,101774.00
2018-12-18T04:19:15.165Z,101776.59
2018-12-18T04:21:43.492Z,101778.37
2018-12-18T04:24:11.792Z,101767.05
2018-12-18T04:26:40.119Z,101771.91
2018-12-18T04:29:08.416Z,101771.91
2018-12-18T04:31:36.814Z,101768.44
2018-12-18T04:34:05.141Z,101767.14
2018-12-18T04:36:33.445Z,101768.44
2018-12-18T04:39:01.748Z,101771.59
2018-12-18T04:41:30.157Z,101773.03
2018-12-18T04:43:58.459Z,101773.03
2018-12-18T04:46:26.770Z,101781.67
2018-12-18T04:48:55.074Z,101779.98
2018-12-18T04:51:23.393Z,101782.47
2018-12-18T04:53:51.684Z,101781.53
2018-12-18T04:56:20.066Z,101776.19
2018-12-18T04:58:48.365Z,101777.79
2018-12-18T05:01:16.694Z,101775.92
2018-12-18T05:03:45.007Z,101780.11
2018-12-18T05:06:13.329Z,101780.11
2018-12-18T05:08:41.650Z,101771.47
2018-12-18T05:11:09.966Z,101776.63
2018-12-18T05:13:38.272Z,101777.13
2018-12-18T05:16:06.582Z,101770.58
2018-12-18T05:18:34.898Z,101769.77
2018-12-18T05:21:03.204Z,101774.36
2018-12-18T05:23:31.519Z,101768.80
2018-12-18T05:25:59.822Z,101771.29
2018-12-18T05:28:28.130Z,101770.00
2018-12-18T05:30:56.448Z,101771.64
2018-12-18T05:33:24.762Z,101778.89
2018-12-18T05:35:53.054Z,101782.77
2018-12-18T05:38:21.389Z,101784.06
2018-12-18T05:40:49.697Z,101780.50
2018-12-18T05:43:17.998Z,101786.56
2018-12-18T05:45:46.297Z,101792.52
2018-12-18T05:48:14.626Z,101798.49
2018-12-18T05:50:42.926Z,101799.07
2018-12-18T05:53:11.253Z,101797.95
2018-12-18T05:55:39.558Z,101801.98
2018-12-18T05:58:07.881Z,101799.97
2018-12-18T06:00:36.181Z,101807.41
2018-12-18T06:03:04.515Z,101810.09
2018-12-18T06:05:32.913Z,101813.16
2018-12-18T06:08:01.230Z,101818.81
2018-12-18T06:10:29.533Z,101816.23
2018-12-18T06:12:57.843Z,101819.70
2018-12-18T06:15:26.252Z,101815.83
2018-12-18T06:17:54.578Z,101818.50
2018-12-18T06:20:22.880Z,101830.27
2018-12-18T06:22:51.191Z,101830.45
2018-12-18T06:25:19.505Z,101826.27
2018-12-18T06:27:47.828Z,101827.64
2018-12-18T06:30:16.184Z,101829.52
2018-12-18T06:32:44.502Z,101826.53
2018-12-18T06:35:12.873Z,101829.20
2018-12-18T06:37:41.209Z,101839.23
2018-12-18T06:40:09.585Z,101834.47
2018-12-18T06:42:37.953Z,101832.83
2018-12-18T06:45:07.656Z,101831.62
2018-12-18T06:47:35.954Z,101838.17
2018-12-18T06:50:04.643Z,101833.98
2018-12-18T06:52:32.935Z,101829.47
2018-12-18T06:55:01.275Z,101836.52
2018-12-18T06:57:29.579Z,101830.14
2018-12-18T06:59:57.894Z,101831.92
2018-12-18T07:02:26.210Z,101836.74
2018-12-18T07:04:54.541Z,101838.92
2018-12-18T07:07:22.884Z,101839.33
2018-12-18T07:09:51.197Z,101849.27
2018-12-18T07:12:19.499Z,101841.11
2018-12-18T07:14:47.830Z,101840.63
2018-12-18T07:17:16.119Z,101840.63
2018-12-18T07:19:44.441Z,101842.80
2018-12-18T07:22:13.316Z,101838.44
2018-12-18T07:24:41.866Z,101848.78
2018-12-18T07:27:10.166Z,101851.36
2018-12-18T07:29:38.501Z,101856.05
2018-12-18T07:32:06.826Z,101862.19
2018-12-18T07:34:35.286Z,101862.45
2018-12-18T07:37:03.582Z,101854.88
2018-12-18T07:39:31.910Z,101853.36
2018-12-18T07:42:00.214Z,101862.14
2018-12-18T07:44:28.541Z,101861.03
2018-12-18T07:46:56.864Z,101864.67
2018-12-18T07:49:25.185Z,101872.61
2018-12-18T07:51:53.477Z,101873.23
2018-12-18T07:54:21.812Z,101877.29
2018-12-18T07:56:50.391Z,101885.62
2018-12-18T07:59:18.698Z,101888.13
2018-12-18T08:01:47.070Z,101892.89
2018-12-18T08:04:15.455Z,101891.20
2018-12-18T08:06:43.742Z,101889.10
2018-12-18T08:09:12.058Z,101878.76
2018-12-18T08:11:40.463Z,101891.37
2018-12-18T08:14:08.762Z,101898.33
2018-12-18T08:19:24.878Z,101893.16
2018-12-18T08:21:53.173Z,101898.10
2018-12-18T08:24:21.518Z,101894.27
2018-12-18T08:26:59.946Z,101883.61
2018-12-18T08:29:28.263Z,101888.16
2018-12-18T08:31:56.582Z,101892.20
2018-12-18T08:34:24.891Z,101897.14
2018-12-18T08:36:53.238Z,101895.59
2018-12-18T08:39:21.552Z,101899.88
2018-12-18T08:41:49.885Z,101893.00
2018-12-18T08:44:18.197Z,101896.16
2018-12-18T08:46:47.235Z,101897.54
2018-12-18T08:49:15.543Z,101891.64
2018-12-18T08:51:43.854Z,101899.58
2018-12-18T08:54:12.166Z,101900.64
2018-12-18T08:56:40.496Z,101903.77
2018-12-18T08:59:08.821Z,101891.48
2018-12-18T09:01:37.117Z,101901.19
2018-12-18T09:04:05.420Z,101906.19
2018-12-18T09:06:33.753Z,101899.97
2018-12-18T09:09:02.042Z,101899.64
2018-12-18T09:11:30.384Z,101894.31
2018-12-18T09:13:58.699Z,101900.52
2018-12-18T09:16:32.631Z,101904.64
2018-12-18T09:19:01.022Z,101901.41
2018-12-18T09:21:29.356Z,101900.36
2018-12-18T09:23:57.642Z,101902.92
2018-12-18T09:26:25.940Z,101905.89
2018-12-18T09:28:54.274Z,101904.10
2018-12-18T09:31:22.585Z,101902.36
2018-12-18T09:33:50.885Z,101895.75
2018-12-18T09:36:19.190Z,101896.08
2018-12-18T09:38:52.989Z,101896.84
2018-12-18T09:41:25.248Z,101888.48
2018-12-18T09:46:46.543Z,101886.89
2018-12-18T09:49:14.838Z,101884.53
2018-12-18T09:51:43.164Z,101885.20
2018-12-18T09:54:11.549Z,101897.92
2018-12-18T09:56:57.566Z,101896.14
2018-12-18T09:59:25.963Z,101894.77
2018-12-18T10:01:54.341Z,101894.28
2018-12-18T10:04:22.743Z,101896.88
2018-12-18T10:06:51.057Z,101894.36
2018-12-18T10:09:19.398Z,101896.78
2018-12-18T10:11:47.707Z,101894.83
2018-12-18T10:14:16.034Z,101885.86
2018-12-18T10:16:44.509Z,101889.58
2018-12-18T10:19:12.814Z,101879.83
2018-12-18T10:21:41.161Z,101892.59
2018-12-18T10:24:09.538Z,101885.03
2018-12-18T10:26:37.869Z,101880.06
2018-12-18T10:29:06.181Z,101883.33
2018-12-18T10:31:34.568Z,101877.06
2018-12-18T10:34:02.953Z,101887.93
2018-12-18T10:36:31.271Z,101886.63
2018-12-18T10:38:59.727Z,101881.84
2018-12-18T10:41:28.189Z,101877.69
2018-12-18T10:43:56.502Z,101883.59
2018-12-18T10:46:24.854Z,101876.73
2018-12-18T10:48:53.410Z,101872.09
2018-12-18T10:51:21.914Z,101871.34
2018-12-18T10:53:50.234Z,101874.16
2018-12-18T10:56:18.578Z,101867.67
2018-12-18T10:58:46.965Z,101864.26
2018-12-18T11:04:05.918Z,101860.95
2018-12-18T11:06:34.233Z,101865.88
2018-12-18T11:09:02.795Z,101863.91
2018-12-18T11:11:31.178Z,101857.97
2018-12-18T11:13:59.553Z,101859.03
2018-12-18T11:16:27.851Z,101859.52
2018-12-18T11:18:56.164Z,101862.73
2018-12-18T11:21:24.589Z,101860.76
2018-12-18T11:23:52.971Z,101852.66
2018-12-18T11:26:21.342Z,101842.48
2018-12-18T11:28:49.726Z,101841.05
2018-12-18T11:31:18.103Z,101849.90
2018-12-18T11:33:46.418Z,101838.69
2018-12-18T11:36:16.720Z,101825.11
2018-12-18T11:38:45.171Z,101817.16
2018-12-18T11:41:13.567Z,101816.16
2018-12-18T11:43:41.947Z,101817.61
2018-12-18T11:46:10.454Z,101810.61
2018-12-18T11:48:38.908Z,101810.35
2018-12-18T11:51:07.281Z,101807.34
2018-12-18T11:53:35.598Z,101802.14
2018-12-18T11:56:03.984Z,101791.38
2018-12-18T11:58:32.441Z,101795.35
2018-12-18T12:01:00.816Z,101797.80
2018-12-18T12:03:29.096Z,101788.88
2018-12-18T12:05:57.455Z,101785.20
2018-12-18T12:08:25.748Z,101784.59
2018-12-18T12:10:54.119Z,101786.88
2018-12-18T12:13:22.486Z,101798.17
2018-12-18T12:15:50.798Z,101802.81
2018-12-18T12:18:19.098Z,101799.11
2018-12-18T12:20:47.640Z,101804.33
2018-12-18T12:23:15.938Z,101796.02
2018-12-18T12:25:44.286Z,101799.59
2018-12-18T12:28:12.655Z,101802.00
2018-12-18T12:30:41.040Z,101797.91
2018-12-18T12:33:09.585Z,101798.33
2018-12-18T12:35:38.002Z,101787.06
2018-12-18T12:38:06.309Z,101787.44
2018-12-18T12:40:34.609Z,101786.29
2018-12-18T12:43:02.946Z,101779.58
2018-12-18T12:45:31.936Z,101790.22
2018-12-18T12:48:00.211Z,101789.18
2018-12-18T12:50:28.803Z,101798.95
2018-12-18T12:52:57.371Z,101795.06
2018-12-18T12:55:25.690Z,101794.92
2018-12-18T12:57:54.155Z,101808.75
2018-12-18T13:00:22.522Z,101801.23
2018-12-18T13:02:50.817Z,101793.88
2018-12-18T13:05:19.133Z,101788.35
2018-12-18T13:07:47.445Z,101784.59
2018-12-18T13:10:15.750Z,101781.64
2018-12-18T13:12:44.090Z,101774.27
2018-12-18T13:15:12.398Z,101780.13
2018-12-18T13:17:40.709Z,101790.09
2018-12-18T13:20:09.365Z,101788.05
2018-12-18T13:22:37.707Z,101787.71
2018-12-18T13:25:06.117Z,101790.45
2018-12-18T13:27:34.471Z,101783.13
2018-12-18T13:30:02.750Z,101784.54
2018-12-18T13:32:31.062Z,101777.77
2018-12-18T13:34:59.508Z,101782.70
2018-12-18T13:37:27.885Z,101780.37
2018-12-18T13:39:56.210Z,101781.91
2018-12-18T13:42:24.526Z,101786.41
2018-12-18T13:44:52.918Z,101790.58
2018-12-18T13:47:27.027Z,101792.92
2018-12-18T13:49:51.861Z,101786.28
2018-12-18T13:52:20.203Z,101782.12
2018-12-18T13:54:48.498Z,101786.10
2018-12-18T13:57:16.878Z,101779.58
2018-12-18T13:59:45.315Z,101777.17
2018-12-18T14:02:13.660Z,101777.50
2018-12-18T14:04:42.110Z,101785.38
2018-12-18T14:07:10.583Z,101778.33
2018-12-18T14:09:38.947Z,101772.27
2018-12-18T14:12:07.349Z,101777.73
2018-12-18T14:14:35.643Z,101772.73
2018-12-18T14:17:04.101Z,101781.97
2018-12-18T14:19:32.502Z,101779.45
2018-12-18T14:22:00.856Z,101784.14
2018-12-18T14:24:29.238Z,101784.81
2018-12-18T14:26:57.878Z,101786.59
2018-12-18T14:29:26.213Z,101784.30
2018-12-18T14:31:54.530Z,101777.35
2018-12-18T14:34:22.829Z,101783.48
2018-12-18T14:36:56.259Z,101776.58
2018-12-18T14:39:21.451Z,101783.31
2018-12-18T14:41:49.764Z,101775.89
2018-12-18T14:44:18.062Z,101782.37
2018-12-18T14:46:46.401Z,101777.52
2018-12-18T14:49:14.794Z,101774.62
2018-12-18T14:51:43.102Z,101773.45
2018-12-18T14:54:11.661Z,101774.02
2018-12-18T14:56:40.614Z,101774.88
2018-12-18T14:59:08.993Z,101766.70
2018-12-18T15:01:37.295Z,101763.75
2018-12-18T15:04:05.650Z,101761.73
2018-12-18T15:06:34.019Z,101765.94
2018-12-18T15:09:02.499Z,101762.45
2018-12-18T15:11:30.853Z,101759.95
2018-12-18T15:13:59.267Z,101751.05
2018-12-18T15:16:27.580Z,101756.22
2018-12-18T15:18:55.905Z,101749.52
2018-12-18T15:21:24.297Z,101753.23
2018-12-18T15:23:52.688Z,101755.05
2018-12-18T15:26:20.976Z,101749.95
2018-12-18T15:28:49.334Z,101754.66
2018-12-18T15:31:17.711Z,101770.09
2018-12-18T15:33:46.093Z,101759.69
2018-12-18T15:36:14.482Z,101755.83
2018-12-18T15:38:42.830Z,101756.30
2018-12-18T15:41:11.168Z,101755.59
2018-12-18T15:43:39.628Z,101761.39
2018-12-18T15:46:08.099Z,101764.12
2018-12-18T15:48:36.595Z,101762.93
2018-12-18T15:51:04.921Z,101766.95
2018-12-18T15:53:33.253Z,101768.87
2018-12-18T15:56:01.542Z,101772.92
2018-12-18T15:58:29.888Z,101777.75
2018-12-18T16:00:58.181Z,101775.70
2018-12-18T16:03:26.497Z,101779.84
2018-12-18T16:05:54.798Z,101778.19
2018-12-18T16:08:23.271Z,101780.20
2018-12-18T16:10:51.588Z,101778.33
2018-12-18T16:13:19.967Z,101774.77
2018-12-18T16:15:48.268Z,101785.94
2018-12-18T16:18:16.608Z,101781.48
2018-12-18T16:20:44.996Z,101779.20
2018-12-18T16:23:13.297Z,101786.95
2018-12-18T16:25:41.654Z,101785.17
2018-12-18T16:28:10.036Z,101779.92
2018-12-18T16:30:38.329Z,101780.55
2018-12-18T16:33:06.793Z,101778.61
2018-12-18T16:35:35.262Z,101780.22
2018-12-18T16:38:03.619Z,101770.51
2018-12-18T16:40:32.035Z,101768.73
2018-12-18T16:43:00.415Z,101763.47
2018-12-18T16:45:28.773Z,101771.12
2018-12-18T16:47:57.071Z,101780.88
2018-12-18T16:50:26.642Z,101779.34
2018-12-18T16:52:55.232Z,101780.36
2018-12-18T16:55:23.566Z,101789.52
2018-12-18T16:57:52.010Z,101794.36
2018-12-18T17:00:20.393Z,101790.20
2018-12-18T17:02:48.942Z,101793.80
2018-12-18T17:05:17.302Z,101788.48
2018-12-18T17:07:45.663Z,101786.70
2018-12-18T17:10:13.969Z,101786.91
2018-12-18T17:15:27.367Z,101790.02
2018-12-18T17:17:55.834Z,101776.22
2018-12-18T17:20:24.150Z,101774.44
2018-12-18T17:22:52.454Z,101779.51
2018-12-18T17:25:20.772Z,101768.73
2018-12-18T17:27:49.138Z,101777.57
2018-12-18T17:30:17.479Z,101775.11
2018-12-18T17:32:45.802Z,101777.02
2018-12-18T17:35:14.130Z,101769.12
2018-12-18T17:37:42.450Z,101772.21
2018-12-18T17:40:10.938Z,101773.22
2018-12-18T17:42:39.327Z,101768.76
2018-12-18T17:45:08.718Z,101777.62
2018-12-18T17:47:37.050Z,101765.63
2018-12-18T17:50:07.048Z,101762.65
2018-12-18T17:52:35.365Z,101766.42
2018-12-18T17:55:03.872Z,101768.32
2018-12-18T17:57:32.186Z,101770.22
2018-12-18T18:00:00.626Z,101764.07
2018-12-18T18:02:29.014Z,101754.55
2018-12-18T18:04:57.329Z,101758.42
2018-12-18T18:07:25.771Z,101754.49
2018-12-18T18:09:54.101Z,101761.39
2018-12-18T18:12:22.454Z,101761.33
2018-12-18T18:14:50.803Z,101764.38
2018-12-18T18:17:19.190Z,101758.81
2018-12-18T18:19:47.520Z,101761.23
2018-12-18T18:22:15.937Z,101761.45
2018-12-18T18:24:44.250Z,101766.50
2018-12-18T18:27:12.702Z,101763.34
2018-12-18T18:29:41.018Z,101759.86
2018-12-18T18:32:09.358Z,101760.27
2018-12-18T18:34:37.692Z,101761.65
2018-12-18T18:37:09.802Z,101752.13
2018-12-18T18:39:38.182Z,101759.67
2018-12-18T18:42:06.559Z,101758.32
2018-12-18T18:44:34.853Z,101751.45
2018-12-18T18:47:03.183Z,101749.11
2018-12-18T18:49:31.702Z,101740.48
2018-12-18T18:52:00.017Z,101740.58
2018-12-18T18:54:34.107Z,101745.55
2018-12-18T18:57:03.383Z,101746.64
2018-12-18T18:59:37.512Z,101748.03
2018-12-18T19:02:17.127Z,101750.84
2018-12-18T19:04:45.465Z,101742.92
2018-12-18T19:07:13.782Z,101742.83
2018-12-18T19:09:42.219Z,101744.51
2018-12-18T19:12:10.546Z,101734.30
2018-12-18T19:14:38.871Z,101738.56
2018-12-18T19:17:07.226Z,101742.03
2018-12-18T19:19:36.888Z,101748.08
2018-12-18T19:22:06.745Z,101736.38
2018-12-18T19:24:35.457Z,101730.44
2018-12-18T19:27:04.197Z,101724.78
2018-12-18T19:29:33.004Z,101727.27
2018-12-18T19:32:02.133Z,101720.33
2018-12-18T19:34:37.495Z,101724.89
2018-12-18T19:37:08.465Z,101721.33
2018-12-18T19:39:37.819Z,101722.16
2018-12-18T19:42:06.556Z,101724.14
2018-12-18T19:44:35.360Z,101723.64
2018-12-18T19:47:04.454Z,101725.23
2018-12-18T19:49:33.839Z,101721.37
2018-12-18T19:52:02.975Z,101716.81
2018-12-18T19:54:31.942Z,101712.45
2018-12-18T19:57:00.740Z,101709.08
2018-12-18T19:59:29.353Z,101713.44
2018-12-18T20:01:57.871Z,101706.20
2018-12-18T20:04:27.116Z,101700.66
2018-12-18T20:06:55.662Z,101695.91
2018-12-18T20:09:24.253Z,101691.14
2018-12-18T20:11:52.720Z,101689.27
2018-12-18T20:14:21.241Z,101686.59
2018-12-18T20:16:49.814Z,101694.22
2018-12-18T20:19:18.451Z,101693.73
2018-12-18T20:21:47.096Z,101699.09
2018-12-18T20:24:17.151Z,101698.09
2018-12-18T20:26:46.485Z,101700.11
2018-12-18T20:29:15.801Z,101695.16
2018-12-18T20:31:44.803Z,101702.79
2018-12-18T20:34:13.703Z,101690.02
2018-12-18T20:36:45.587Z,101677.77
2018-12-18T20:39:14.313Z,101667.77
2018-12-18T20:41:43.152Z,101671.63
2018-12-18T20:44:11.933Z,101669.36
2018-12-18T20:46:40.582Z,101668.27
2018-12-18T20:49:09.195Z,101668.77
2018-12-18T20:51:37.872Z,101673.52
2018-12-18T20:54:07.041Z,101659.30
2018-12-18T20:56:39.123Z,101652.17
2018-12-18T20:59:07.622Z,101647.62
2018-12-18T21:01:36.555Z,101658.80
2018-12-18T21:04:10.711Z,101659.33
2018-12-18T21:06:39.412Z,101657.94
2018-12-18T21:09:09.696Z,101662.09
2018-12-18T21:11:39.194Z,101659.82
2018-12-18T21:14:08.839Z,101652.80
2018-12-18T21:16:37.672Z,101645.30
2018-12-18T21:19:06.442Z,101648.17
2018-12-18T21:21:34.979Z,101645.00
2018-12-18T21:24:03.674Z,101642.23
2018-12-18T21:26:32.404Z,101630.34
2018-12-18T21:29:00.952Z,101624.31
2018-12-18T21:31:30.181Z,101617.32
2018-12-18T21:33:58.911Z,101618.11
2018-12-18T21:36:27.607Z,101612.27
2018-12-18T21:39:11.174Z,101609.80
2018-12-18T21:41:39.733Z,101606.55
2018-12-18T21:44:08.223Z,101608.72
2018-12-18T21:46:37.520Z,101608.03
2018-12-18T21:49:06.031Z,101609.14
2018-12-18T21:51:34.651Z,101607.95
2018-12-18T21:54:03.094Z,101611.50
2018-12-18T21:56:31.520Z,101613.69
2018-12-18T21:59:00.380Z,101617.45
2018-12-18T22:01:29.153Z,101614.67
2018-12-18T22:03:57.853Z,101614.95
2018-12-18T22:06:26.574Z,101622.46
2018-12-18T22:08:55.113Z,101625.92
2018-12-18T22:11:23.679Z,101610.90
2018-12-18T22:13:52.296Z,101610.00
2018-12-18T22:16:26.907Z,101609.50
2018-12-18T22:18:55.699Z,101608.52
2018-12-18T22:21:24.157Z,101617.91
2018-12-18T22:23:52.834Z,101599.34
2018-12-18T22:26:21.762Z,101602.70
2018-12-18T22:28:50.439Z,101602.39
2018-12-18T22:31:23.999Z,101600.11
2018-12-18T22:33:52.489Z,101593.48
2018-12-18T22:36:21.112Z,101584.81
2018-12-18T22:38:50.074Z,101583.59
2018-12-18T22:41:18.522Z,101572.36
2018-12-18T22:43:47.590Z,101574.44
2018-12-18T22:46:16.059Z,101572.65
2018-12-18T22:48:44.629Z,101557.52
2018-12-18T22:51:13.428Z,101547.94
2018-12-18T22:53:42.806Z,101550.69
2018-12-18T22:56:11.636Z,101553.05
2018-12-18T22:58:40.440Z,101553.88
2018-12-18T23:01:14.580Z,101547.34
2018-12-18T23:03:43.217Z,101539.53
2018-12-18T23:06:11.985Z,101539.93
2018-12-18T23:08:41.289Z,101534.40
2018-12-18T23:11:10.274Z,101530.44
2018-12-18T23:13:38.924Z,101527.48
2018-12-18T23:16:07.846Z,101527.67
2018-12-18T23:18:36.350Z,101520.85
2018-12-18T23:21:05.070Z,101506.33
2018-12-18T23:23:33.618Z,101503.16
2018-12-18T23:26:02.773Z,101505.63
2018-12-18T23:28:31.335Z,101507.09
2018-12-18T23:30:59.775Z,101506.14
2018-12-18T23:33:28.530Z,101505.05
2018-12-18T23:35:57.033Z,101496.73
2018-12-18T23:38:25.532Z,101497.31
2018-12-18T23:40:54.291Z,101486.45
2018-12-18T23:43:23.055Z,101483.81
2018-12-18T23:45:51.549Z,101483.48
2018-12-18T23:48:20.298Z,101487.27
2018-12-18T23:50:48.807Z,101483.81
2018-12-18T23:53:17.413Z,101476.50
2018-12-18T23:55:46.210Z,101473.53
2018-12-18T23:58:14.897Z,101461.09
